메인 페이지
METAR-TAF:

METAR-TAF

공항 :

이디르, 터키

위도: 39-58-36N, 경도: 43-52-36E, 고도: 945m

현재 날씨관측

예보는 1 시간 42분 전, 12:50시(UTC)에 발표되었습니다.
무풍
온도 5°C
습도 75%
기압 1020 hPa
시정: 4900m
고도 2500ft 상공 구름 많음
고도 5000ft 상공 구름 많음
박무

METAR: LTCT 141250Z 00000KT 4900 BR BKN025 BKN050 05/01 Q1020

시각: 17:32 (14:32 UTC)

예보

예보는 3 시간 52분 전, 10:40시(UTC)에 발표되었습니다.
예보 대상 시간: 14일 12시부터 14일 21시까지 (UTC)
여러 방향의 바람 2kt
시정: 4500m
고도 1500ft 상공 구름 보통
고도 2500ft 상공 구름 많음
고도 5000ft 상공 구름 많음
박무
전환 중
14일 12시부터 14일 15시까지 (UTC)
시정: 6000m

TAF: LTCT 141040Z 1412/1421 VRB02KT 4500 BR SCT015 BKN025 BKN050 BECMG 1412/1415 6000

4,000개 이상의 공항 관측 자료 및 예보 (METAR 및 TAF 보고).

지도상에서 검색 가능한 기상관측소가 노란 점과 빨간 점으로 표시되어 있습니다.

기상관측소 명을 보려면 표시 위로 마우스를 이동하세요.

날씨 관측과 예보를 보려면 클릭하세요.

지도 변경 : 확대하려면 엑스 표시가 있는 녹색 버튼, 축소하려면 빼기 표시가 있는 녹색 버튼, 다음 페이지의 지도를 보려면 녹색 화살표를 클릭하세요.


METAR-TAF: